sensor_id;sensor_type;location;lat;lon;timestamp;pressure;altitude;pressure_sealevel;temperature;humidity
17072;BME280;7731;50.720;6.912;2023-07-16T00:00:40;99504.66;;;19.51;100.00
17072;BME280;7731;50.720;6.912;2023-07-16T00:03:15;99517.84;;;19.50;100.00
17072;BME280;7731;50.720;6.912;2023-07-16T00:05:52;99514.19;;;19.42;100.00
17072;BME280;7731;50.720;6.912;2023-07-16T00:08:24;99515.16;;;19.41;100.00
17072;BME280;7731;50.720;6.912;2023-07-16T00:10:55;99521.41;;;19.49;100.00
17072;BME280;7731;50.720;6.912;2023-07-16T00:13:27;99522.06;;;19.33;100.00
17072;BME280;7731;50.720;6.912;2023-07-16T00:16:10;99524.81;;;19.31;100.00
17072;BME280;7731;50.720;6.912;2023-07-16T00:18:45;99528.34;;;19.40;100.00
17072;BME280;7731;50.720;6.912;2023-07-16T00:21:15;99523.13;;;19.40;100.00
17072;BME280;7731;50.720;6.912;2023-07-16T00:23:45;99531.09;;;19.38;100.00
17072;BME280;7731;50.720;6.912;2023-07-16T00:26:16;99526.44;;;19.14;100.00
17072;BME280;7731;50.720;6.912;2023-07-16T00:28:46;99535.31;;;19.39;100.00
17072;BME280;7731;50.720;6.912;2023-07-16T00:31:17;99525.84;;;19.20;100.00
17072;BME280;7731;50.720;6.912;2023-07-16T00:34:02;99541.25;;;19.32;100.00
17072;BME280;7731;50.720;6.912;2023-07-16T00:36:44;99541.25;;;19.14;100.00
17072;BME280;7731;50.720;6.912;2023-07-16T00:39:18;99540.94;;;18.89;100.00
17072;BME280;7731;50.720;6.912;2023-07-16T00:42:04;99544.25;;;18.91;100.00
17072;BME280;7731;50.720;6.912;2023-07-16T00:44:34;99538.03;;;18.92;100.00
17072;BME280;7731;50.720;6.912;2023-07-16T00:47:10;99545.06;;;18.82;100.00
17072;BME280;7731;50.720;6.912;2023-07-16T00:49:44;99540.72;;;18.72;100.00
17072;BME280;7731;50.720;6.912;2023-07-16T00:52:18;99538.94;;;18.73;100.00
17072;BME280;7731;50.720;6.912;2023-07-16T00:54:52;99539.38;;;18.68;100.00
17072;BME280;7731;50.720;6.912;2023-07-16T00:57:26;99545.66;;;18.66;100.00
17072;BME280;7731;50.720;6.912;2023-07-16T00:59:56;99536.09;;;18.66;100.00
17072;BME280;7731;50.720;6.912;2023-07-16T01:02:26;99543.78;;;18.58;100.00
17072;BME280;7731;50.720;6.912;2023-07-16T01:05:04;99541.16;;;18.58;100.00
17072;BME280;7731;50.720;6.912;2023-07-16T01:07:36;99549.69;;;18.60;100.00
17072;BME280;7731;50.720;6.912;2023-07-16T01:10:08;99550.81;;;18.48;100.00
17072;BME280;7731;50.720;6.912;2023-07-16T01:12:39;99555.03;;;18.59;100.00
17072;BME280;7731;50.720;6.912;2023-07-16T01:15:13;99552.84;;;18.54;100.00
17072;BME280;7731;50.720;6.912;2023-07-16T01:17:43;99547.63;;;18.54;100.00
17072;BME280;7731;50.720;6.912;2023-07-16T01:20:16;99553.66;;;18.54;100.00
17072;BME280;7731;50.720;6.912;2023-07-16T01:23:25;99565.19;;;18.42;100.00
17072;BME280;7731;50.720;6.912;2023-07-16T01:26:10;99558.09;;;18.34;100.00
17072;BME280;7731;50.720;6.912;2023-07-16T01:29:26;99566.88;;;18.14;100.00
17072;BME280;7731;50.720;6.912;2023-07-16T01:32:03;99571.25;;;18.23;100.00
17072;BME280;7731;50.720;6.912;2023-07-16T01:34:36;99572.47;;;18.38;100.00
17072;BME280;7731;50.720;6.912;2023-07-16T01:37:07;99574.22;;;18.48;100.00
17072;BME280;7731;50.720;6.912;2023-07-16T01:39:40;99574.19;;;18.58;100.00
17072;BME280;7731;50.720;6.912;2023-07-16T01:42:11;99582.56;;;18.51;100.00
17072;BME280;7731;50.720;6.912;2023-07-16T01:44:48;99577.25;;;18.33;100.00
17072;BME280;7731;50.720;6.912;2023-07-16T01:47:32;99579.97;;;18.32;100.00
17072;BME280;7731;50.720;6.912;2023-07-16T01:50:07;99594.25;;;18.28;100.00
17072;BME280;7731;50.720;6.912;2023-07-16T01:52:38;99592.44;;;18.38;100.00
17072;BME280;7731;50.720;6.912;2023-07-16T01:55:09;99598.84;;;18.44;100.00
17072;BME280;7731;50.720;6.912;2023-07-16T01:57:40;99593.66;;;18.44;100.00
17072;BME280;7731;50.720;6.912;2023-07-16T02:00:13;99603.81;;;18.27;100.00
17072;BME280;7731;50.720;6.912;2023-07-16T02:02:46;99600.53;;;18.25;100.00
17072;BME280;7731;50.720;6.912;2023-07-16T02:05:18;99608.75;;;18.20;100.00
17072;BME280;7731;50.720;6.912;2023-07-16T02:07:49;99606.84;;;18.13;100.00
17072;BME280;7731;50.720;6.912;2023-07-16T02:10:19;99608.50;;;18.14;100.00
17072;BME280;7731;50.720;6.912;2023-07-16T02:12:49;99609.84;;;18.18;100.00
17072;BME280;7731;50.720;6.912;2023-07-16T02:15:27;99613.13;;;18.20;100.00
17072;BME280;7731;50.720;6.912;2023-07-16T02:17:58;99621.06;;;18.09;100.00
17072;BME280;7731;50.720;6.912;2023-07-16T02:20:28;99624.50;;;18.09;100.00
17072;BME280;7731;50.720;6.912;2023-07-16T02:22:58;99624.91;;;18.05;100.00
17072;BME280;7731;50.720;6.912;2023-07-16T02:25:32;99628.19;;;18.07;100.00
17072;BME280;7731;50.720;6.912;2023-07-16T02:28:03;99627.50;;;18.05;100.00
17072;BME280;7731;50.720;6.912;2023-07-16T02:30:36;99632.00;;;18.02;100.00
17072;BME280;7731;50.720;6.912;2023-07-16T02:33:06;99627.09;;;18.09;100.00
17072;BME280;7731;50.720;6.912;2023-07-16T02:35:46;99639.00;;;18.02;100.00
17072;BME280;7731;50.720;6.912;2023-07-16T02:38:19;99638.13;;;17.82;100.00
17072;BME280;7731;50.720;6.912;2023-07-16T02:40:49;99641.53;;;17.82;100.00
17072;BME280;7731;50.720;6.912;2023-07-16T02:43:26;99648.63;;;17.71;100.00
17072;BME280;7731;50.720;6.912;2023-07-16T02:45:58;99653.00;;;17.60;100.00
17072;BME280;7731;50.720;6.912;2023-07-16T02:48:29;99648.59;;;17.61;100.00
17072;BME280;7731;50.720;6.912;2023-07-16T02:50:59;99656.38;;;17.51;100.00
17072;BME280;7731;50.720;6.912;2023-07-16T02:53:29;99652.72;;;17.63;100.00
17072;BME280;7731;50.720;6.912;2023-07-16T02:56:00;99665.31;;;17.68;100.00
17072;BME280;7731;50.720;6.912;2023-07-16T02:58:30;99671.31;;;17.78;100.00
17072;BME280;7731;50.720;6.912;2023-07-16T03:01:03;99671.06;;;17.81;100.00
17072;BME280;7731;50.720;6.912;2023-07-16T03:03:37;99674.50;;;17.82;100.00
17072;BME280;7731;50.720;6.912;2023-07-16T03:06:14;99668.56;;;17.60;100.00
17072;BME280;7731;50.720;6.912;2023-07-16T03:08:48;99667.34;;;17.64;100.00
17072;BME280;7731;50.720;6.912;2023-07-16T03:11:19;99675.66;;;17.58;100.00
17072;BME280;7731;50.720;6.912;2023-07-16T03:13:49;99668.00;;;17.57;100.00
17072;BME280;7731;50.720;6.912;2023-07-16T03:16:28;99672.78;;;17.61;100.00
17072;BME280;7731;50.720;6.912;2023-07-16T03:18:58;99675.91;;;17.55;100.00
17072;BME280;7731;50.720;6.912;2023-07-16T03:21:30;99680.44;;;17.53;100.00
17072;BME280;7731;50.720;6.912;2023-07-16T03:24:04;99681.34;;;17.42;100.00
17072;BME280;7731;50.720;6.912;2023-07-16T03:26:35;99691.41;;;17.26;100.00
17072;BME280;7731;50.720;6.912;2023-07-16T03:29:05;99697.50;;;17.15;100.00
17072;BME280;7731;50.720;6.912;2023-07-16T03:31:40;99704.81;;;17.31;100.00
17072;BME280;7731;50.720;6.912;2023-07-16T03:34:11;99697.69;;;17.23;100.00
17072;BME280;7731;50.720;6.912;2023-07-16T03:36:41;99701.06;;;17.14;100.00
17072;BME280;7731;50.720;6.912;2023-07-16T03:39:11;99711.44;;;17.45;100.00
17072;BME280;7731;50.720;6.912;2023-07-16T03:41:41;99708.59;;;17.48;100.00
17072;BME280;7731;50.720;6.912;2023-07-16T03:44:12;99711.25;;;17.37;100.00
17072;BME280;7731;50.720;6.912;2023-07-16T03:46:45;99704.97;;;17.29;100.00
17072;BME280;7731;50.720;6.912;2023-07-16T03:49:15;99707.72;;;17.38;100.00
17072;BME280;7731;50.720;6.912;2023-07-16T03:51:45;99717.81;;;17.31;100.00
17072;BME280;7731;50.720;6.912;2023-07-16T03:54:15;99713.34;;;17.43;100.00
17072;BME280;7731;50.720;6.912;2023-07-16T03:56:46;99718.19;;;17.26;100.00
17072;BME280;7731;50.720;6.912;2023-07-16T03:59:25;99721.22;;;17.31;100.00
17072;BME280;7731;50.720;6.912;2023-07-16T04:02:00;99723.13;;;17.29;100.00
17072;BME280;7731;50.720;6.912;2023-07-16T04:04:31;99722.63;;;17.36;100.00
17072;BME280;7731;50.720;6.912;2023-07-16T04:07:01;99715.34;;;17.29;100.00
17072;BME280;7731;50.720;6.912;2023-07-16T04:09:31;99723.47;;;17.46;100.00
17072;BME280;7731;50.720;6.912;2023-07-16T04:12:02;99729.16;;;17.40;100.00
17072;BME280;7731;50.720;6.912;2023-07-16T04:14:32;99724.25;;;17.37;100.00
17072;BME280;7731;50.720;6.912;2023-07-16T04:17:05;99723.72;;;17.43;100.00
17072;BME280;7731;50.720;6.912;2023-07-16T04:19:36;99731.97;;;17.48;100.00
17072;BME280;7731;50.720;6.912;2023-07-16T04:22:09;99730.31;;;17.47;100.00
17072;BME280;7731;50.720;6.912;2023-07-16T04:24:39;99736.84;;;17.41;100.00
17072;BME280;7731;50.720;6.912;2023-07-16T04:27:09;99740.69;;;17.47;100.00
17072;BME280;7731;50.720;6.912;2023-07-16T04:29:40;99744.59;;;17.62;100.00
17072;BME280;7731;50.720;6.912;2023-07-16T04:32:13;99744.75;;;17.71;100.00
17072;BME280;7731;50.720;6.912;2023-07-16T04:34:45;99749.25;;;17.68;100.00
17072;BME280;7731;50.720;6.912;2023-07-16T04:37:15;99754.97;;;17.62;100.00
17072;BME280;7731;50.720;6.912;2023-07-16T04:39:46;99745.72;;;17.70;100.00
17072;BME280;7731;50.720;6.912;2023-07-16T04:42:20;99749.22;;;17.59;100.00
17072;BME280;7731;50.720;6.912;2023-07-16T04:44:56;99750.31;;;17.56;100.00
17072;BME280;7731;50.720;6.912;2023-07-16T04:47:29;99755.84;;;17.73;100.00
17072;BME280;7731;50.720;6.912;2023-07-16T04:50:00;99760.94;;;17.84;100.00
17072;BME280;7731;50.720;6.912;2023-07-16T04:52:37;99758.00;;;17.67;100.00
17072;BME280;7731;50.720;6.912;2023-07-16T04:55:08;99768.84;;;17.82;100.00
17072;BME280;7731;50.720;6.912;2023-07-16T04:57:39;99773.44;;;17.90;100.00
17072;BME280;7731;50.720;6.912;2023-07-16T05:00:11;99768.81;;;18.03;100.00
17072;BME280;7731;50.720;6.912;2023-07-16T05:02:44;99772.63;;;17.99;97.81
17072;BME280;7731;50.720;6.912;2023-07-16T05:05:14;99773.91;;;17.74;100.00
17072;BME280;7731;50.720;6.912;2023-07-16T05:07:47;99780.69;;;17.96;97.39
17072;BME280;7731;50.720;6.912;2023-07-16T05:10:18;99779.34;;;17.92;98.22
17072;BME280;7731;50.720;6.912;2023-07-16T05:12:48;99781.69;;;18.15;96.39
17072;BME280;7731;50.720;6.912;2023-07-16T05:15:25;99786.41;;;18.31;94.37
17072;BME280;7731;50.720;6.912;2023-07-16T05:17:58;99788.69;;;18.24;92.70
17072;BME280;7731;50.720;6.912;2023-07-16T05:20:30;99791.75;;;18.29;93.71
17072;BME280;7731;50.720;6.912;2023-07-16T05:23:01;99795.69;;;18.33;92.09
17072;BME280;7731;50.720;6.912;2023-07-16T05:25:34;99795.88;;;18.90;91.13
17072;BME280;7731;50.720;6.912;2023-07-16T05:28:07;99792.59;;;19.65;81.62
17072;BME280;7731;50.720;6.912;2023-07-16T05:30:38;99788.91;;;21.13;69.20
17072;BME280;7731;50.720;6.912;2023-07-16T05:33:11;99794.97;;;23.65;57.54
17072;BME280;7731;50.720;6.912;2023-07-16T05:35:41;99784.81;;;24.33;51.60
17072;BME280;7731;50.720;6.912;2023-07-16T05:38:12;99789.97;;;25.26;46.85
17072;BME280;7731;50.720;6.912;2023-07-16T05:40:42;99796.47;;;25.53;45.00
17072;BME280;7731;50.720;6.912;2023-07-16T05:43:14;99801.19;;;25.58;45.23
17072;BME280;7731;50.720;6.912;2023-07-16T05:45:50;99805.44;;;24.13;46.79
17072;BME280;7731;50.720;6.912;2023-07-16T05:48:26;99809.66;;;25.15;45.80
17072;BME280;7731;50.720;6.912;2023-07-16T05:50:56;99810.88;;;25.72;43.18
17072;BME280;7731;50.720;6.912;2023-07-16T05:53:33;99814.47;;;27.31;39.41
17072;BME280;7731;50.720;6.912;2023-07-16T05:56:04;99809.56;;;27.27;39.41
17072;BME280;7731;50.720;6.912;2023-07-16T05:58:37;99815.94;;;27.68;39.40
17072;BME280;7731;50.720;6.912;2023-07-16T06:01:09;99812.19;;;29.13;35.42
17072;BME280;7731;50.720;6.912;2023-07-16T06:03:42;99808.94;;;28.84;35.91
17072;BME280;7731;50.720;6.912;2023-07-16T06:06:12;99824.13;;;26.67;38.79
17072;BME280;7731;50.720;6.912;2023-07-16T06:08:43;99822.81;;;27.06;37.37
17072;BME280;7731;50.720;6.912;2023-07-16T06:11:16;99838.25;;;26.81;38.44
17072;BME280;7731;50.720;6.912;2023-07-16T06:13:47;99839.41;;;26.20;39.95
17072;BME280;7731;50.720;6.912;2023-07-16T06:16:17;99835.47;;;27.74;37.04
17072;BME280;7731;50.720;6.912;2023-07-16T06:18:52;99843.06;;;27.27;37.88
17072;BME280;7731;50.720;6.912;2023-07-16T06:21:30;99840.50;;;27.34;38.00
17072;BME280;7731;50.720;6.912;2023-07-16T06:24:00;99833.47;;;28.38;35.49
17072;BME280;7731;50.720;6.912;2023-07-16T06:26:31;99839.38;;;28.53;34.92
17072;BME280;7731;50.720;6.912;2023-07-16T06:29:01;99845.44;;;27.43;35.98
17072;BME280;7731;50.720;6.912;2023-07-16T06:31:32;99839.88;;;26.60;37.32
17072;BME280;7731;50.720;6.912;2023-07-16T06:34:09;99859.31;;;27.52;36.09
17072;BME280;7731;50.720;6.912;2023-07-16T06:36:42;99849.53;;;26.75;37.10
17072;BME280;7731;50.720;6.912;2023-07-16T06:39:12;99841.16;;;27.14;36.35
17072;BME280;7731;50.720;6.912;2023-07-16T06:41:45;99851.22;;;27.04;35.99
17072;BME280;7731;50.720;6.912;2023-07-16T06:44:16;99841.69;;;29.03;32.62
17072;BME280;7731;50.720;6.912;2023-07-16T06:46:49;99849.28;;;27.83;34.47
17072;BME280;7731;50.720;6.912;2023-07-16T06:49:22;99845.91;;;28.57;34.12
17072;BME280;7731;50.720;6.912;2023-07-16T06:51:52;99839.84;;;29.17;32.24
17072;BME280;7731;50.720;6.912;2023-07-16T06:54:23;99842.41;;;29.77;30.71
17072;BME280;7731;50.720;6.912;2023-07-16T06:56:53;99850.44;;;28.90;31.59
17072;BME280;7731;50.720;6.912;2023-07-16T06:59:23;99844.31;;;29.50;30.98
17072;BME280;7731;50.720;6.912;2023-07-16T07:01:54;99843.06;;;29.66;30.34
17072;BME280;7731;50.720;6.912;2023-07-16T07:04:32;99860.09;;;28.29;32.48
17072;BME280;7731;50.720;6.912;2023-07-16T07:07:02;99863.22;;;27.35;32.79
17072;BME280;7731;50.720;6.912;2023-07-16T07:09:33;99855.22;;;28.40;31.75
17072;BME280;7731;50.720;6.912;2023-07-16T07:12:04;99849.25;;;30.43;29.46
17072;BME280;7731;50.720;6.912;2023-07-16T07:14:35;99837.56;;;31.08;28.57
17072;BME280;7731;50.720;6.912;2023-07-16T07:17:05;99848.59;;;29.51;31.12
17072;BME280;7731;50.720;6.912;2023-07-16T07:19:46;99848.91;;;26.94;34.48
17072;BME280;7731;50.720;6.912;2023-07-16T07:22:16;99845.00;;;29.97;30.28
17072;BME280;7731;50.720;6.912;2023-07-16T07:24:49;99855.06;;;31.34;27.66
17072;BME280;7731;50.720;6.912;2023-07-16T07:27:19;99855.66;;;28.50;30.92
17072;BME280;7731;50.720;6.912;2023-07-16T07:29:49;99853.41;;;30.26;28.92
17072;BME280;7731;50.720;6.912;2023-07-16T07:32:22;99847.97;;;30.53;27.55
17072;BME280;7731;50.720;6.912;2023-07-16T07:34:55;99859.31;;;29.83;27.83
17072;BME280;7731;50.720;6.912;2023-07-16T07:37:29;99857.53;;;28.70;30.88
17072;BME280;7731;50.720;6.912;2023-07-16T07:40:00;99838.06;;;30.73;27.74
17072;BME280;7731;50.720;6.912;2023-07-16T07:42:30;99856.84;;;29.88;28.76
17072;BME280;7731;50.720;6.912;2023-07-16T07:45:01;99859.00;;;28.92;29.96
17072;BME280;7731;50.720;6.912;2023-07-16T07:47:31;99861.41;;;29.07;30.05
17072;BME280;7731;50.720;6.912;2023-07-16T07:50:06;99861.88;;;27.17;32.64
17072;BME280;7731;50.720;6.912;2023-07-16T07:52:37;99864.88;;;28.81;30.07
17072;BME280;7731;50.720;6.912;2023-07-16T07:55:08;99864.38;;;28.37;31.30
17072;BME280;7731;50.720;6.912;2023-07-16T07:57:52;99851.13;;;29.78;28.93
17072;BME280;7731;50.720;6.912;2023-07-16T08:00:25;99856.13;;;29.41;28.72
17072;BME280;7731;50.720;6.912;2023-07-16T08:02:55;99866.22;;;31.43;27.67
17072;BME280;7731;50.720;6.912;2023-07-16T08:05:29;99866.28;;;28.63;29.32
17072;BME280;7731;50.720;6.912;2023-07-16T08:08:00;99860.19;;;29.50;28.56
17072;BME280;7731;50.720;6.912;2023-07-16T08:10:34;99863.06;;;29.42;29.30
17072;BME280;7731;50.720;6.912;2023-07-16T08:13:04;99860.22;;;29.30;29.46
17072;BME280;7731;50.720;6.912;2023-07-16T08:15:34;99869.22;;;30.07;27.63
17072;BME280;7731;50.720;6.912;2023-07-16T08:18:08;99871.00;;;28.13;29.94
17072;BME280;7731;50.720;6.912;2023-07-16T08:20:46;99862.22;;;30.84;26.29
17072;BME280;7731;50.720;6.912;2023-07-16T08:23:16;99873.63;;;29.55;27.82
17072;BME280;7731;50.720;6.912;2023-07-16T08:25:49;99875.78;;;28.51;29.43
17072;BME280;7731;50.720;6.912;2023-07-16T08:28:31;99873.63;;;29.15;28.68
17072;BME280;7731;50.720;6.912;2023-07-16T08:31:01;99873.66;;;30.14;27.43
17072;BME280;7731;50.720;6.912;2023-07-16T08:33:31;99874.81;;;30.95;25.96
17072;BME280;7731;50.720;6.912;2023-07-16T08:36:07;99877.53;;;30.56;26.12
17072;BME280;7731;50.720;6.912;2023-07-16T08:38:40;99875.69;;;30.57;26.25
17072;BME280;7731;50.720;6.912;2023-07-16T08:41:10;99880.00;;;30.83;26.21
17072;BME280;7731;50.720;6.912;2023-07-16T08:43:43;99867.88;;;30.69;26.65
17072;BME280;7731;50.720;6.912;2023-07-16T08:46:15;99876.59;;;30.37;26.60
17072;BME280;7731;50.720;6.912;2023-07-16T08:48:47;99868.91;;;30.22;28.10
17072;BME280;7731;50.720;6.912;2023-07-16T08:51:21;99872.34;;;30.68;27.62
17072;BME280;7731;50.720;6.912;2023-07-16T08:53:56;99875.09;;;31.93;25.73
17072;BME280;7731;50.720;6.912;2023-07-16T08:56:27;99874.25;;;30.16;27.83
17072;BME280;7731;50.720;6.912;2023-07-16T08:59:00;99877.50;;;31.82;25.38
17072;BME280;7731;50.720;6.912;2023-07-16T09:01:33;99874.59;;;29.81;27.47
17072;BME280;7731;50.720;6.912;2023-07-16T09:04:11;99878.03;;;30.40;26.87
17072;BME280;7731;50.720;6.912;2023-07-16T09:06:44;99871.13;;;30.32;28.06
17072;BME280;7731;50.720;6.912;2023-07-16T09:09:21;99869.84;;;31.30;26.72
17072;BME280;7731;50.720;6.912;2023-07-16T09:11:52;99875.13;;;30.80;27.61
17072;BME280;7731;50.720;6.912;2023-07-16T09:14:22;99876.34;;;30.00;27.10
17072;BME280;7731;50.720;6.912;2023-07-16T09:16:53;99871.47;;;29.97;26.32
17072;BME280;7731;50.720;6.912;2023-07-16T09:19:25;99875.66;;;28.99;29.10
17072;BME280;7731;50.720;6.912;2023-07-16T09:22:02;99892.75;;;28.90;29.06
17072;BME280;7731;50.720;6.912;2023-07-16T09:24:36;99887.88;;;29.00;28.04
17072;BME280;7731;50.720;6.912;2023-07-16T09:27:06;99894.44;;;27.94;30.99
17072;BME280;7731;50.720;6.912;2023-07-16T09:29:41;99892.41;;;29.20;28.32
17072;BME280;7731;50.720;6.912;2023-07-16T09:32:11;99877.91;;;30.15;27.32
17072;BME280;7731;50.720;6.912;2023-07-16T09:34:42;99889.44;;;29.95;27.34
17072;BME280;7731;50.720;6.912;2023-07-16T09:37:18;99883.25;;;31.79;25.31
17072;BME280;7731;50.720;6.912;2023-07-16T09:39:51;99893.34;;;31.71;24.83
17072;BME280;7731;50.720;6.912;2023-07-16T09:42:23;99878.59;;;30.80;26.78
17072;BME280;7731;50.720;6.912;2023-07-16T09:45:01;99880.25;;;31.32;25.51
17072;BME280;7731;50.720;6.912;2023-07-16T09:47:32;99893.88;;;31.36;25.48
17072;BME280;7731;50.720;6.912;2023-07-16T09:50:03;99893.56;;;30.30;26.22
17072;BME280;7731;50.720;6.912;2023-07-16T09:52:37;99897.13;;;28.56;28.29
17072;BME280;7731;50.720;6.912;2023-07-16T09:55:14;99887.50;;;31.62;26.01
17072;BME280;7731;50.720;6.912;2023-07-16T09:57:46;99893.94;;;29.74;27.35
17072;BME280;7731;50.720;6.912;2023-07-16T10:00:18;99896.66;;;30.20;26.28
17072;BME280;7731;50.720;6.912;2023-07-16T10:02:51;99890.84;;;30.36;26.63
17072;BME280;7731;50.720;6.912;2023-07-16T10:05:25;99902.72;;;30.72;25.97
17072;BME280;7731;50.720;6.912;2023-07-16T10:08:02;99902.06;;;28.59;28.21
17072;BME280;7731;50.720;6.912;2023-07-16T10:10:40;99897.22;;;29.16;27.96
17072;BME280;7731;50.720;6.912;2023-07-16T10:13:12;99897.00;;;29.85;27.57
17072;BME280;7731;50.720;6.912;2023-07-16T10:15:54;99895.06;;;30.57;26.50
17072;BME280;7731;50.720;6.912;2023-07-16T10:18:29;99904.94;;;30.30;27.17
17072;BME280;7731;50.720;6.912;2023-07-16T10:21:05;99897.44;;;30.27;27.31
17072;BME280;7731;50.720;6.912;2023-07-16T10:23:43;99914.25;;;30.07;27.38
17072;BME280;7731;50.720;6.912;2023-07-16T10:26:15;99908.84;;;29.55;27.44
17072;BME280;7731;50.720;6.912;2023-07-16T10:28:49;99924.81;;;27.77;29.97
17072;BME280;7731;50.720;6.912;2023-07-16T10:31:24;99914.03;;;28.07;29.25
17072;BME280;7731;50.720;6.912;2023-07-16T10:34:01;99908.50;;;28.50;28.43
17072;BME280;7731;50.720;6.912;2023-07-16T10:36:38;99908.22;;;29.13;27.56
17072;BME280;7731;50.720;6.912;2023-07-16T10:39:10;99893.94;;;30.33;26.76
17072;BME280;7731;50.720;6.912;2023-07-16T10:41:41;99917.16;;;28.72;27.90
17072;BME280;7731;50.720;6.912;2023-07-16T10:44:14;99919.78;;;27.82;28.79
17072;BME280;7731;50.720;6.912;2023-07-16T10:46:44;99919.72;;;26.97;30.64
17072;BME280;7731;50.720;6.912;2023-07-16T10:49:15;99921.53;;;26.09;31.78
17072;BME280;7731;50.720;6.912;2023-07-16T10:51:45;99912.75;;;26.89;31.87
17072;BME280;7731;50.720;6.912;2023-07-16T10:54:20;99914.03;;;26.42;31.75
17072;BME280;7731;50.720;6.912;2023-07-16T10:56:52;99917.34;;;27.52;30.05
17072;BME280;7731;50.720;6.912;2023-07-16T10:59:22;99914.19;;;28.47;29.02
17072;BME280;7731;50.720;6.912;2023-07-16T11:01:52;99914.78;;;27.66;30.25
17072;BME280;7731;50.720;6.912;2023-07-16T11:04:23;99911.22;;;27.45;30.07
17072;BME280;7731;50.720;6.912;2023-07-16T11:06:53;99922.78;;;26.64;32.04
17072;BME280;7731;50.720;6.912;2023-07-16T11:09:26;99914.28;;;27.77;29.85
17072;BME280;7731;50.720;6.912;2023-07-16T11:12:06;99914.72;;;27.09;30.66
17072;BME280;7731;50.720;6.912;2023-07-16T11:14:38;99917.06;;;26.09;32.71
17072;BME280;7731;50.720;6.912;2023-07-16T11:17:10;99915.69;;;27.01;31.61
17072;BME280;7731;50.720;6.912;2023-07-16T11:19:47;99928.69;;;26.30;31.73
17072;BME280;7731;50.720;6.912;2023-07-16T11:22:18;99927.47;;;26.32;31.31
17072;BME280;7731;50.720;6.912;2023-07-16T11:24:54;99908.91;;;27.64;29.89
17072;BME280;7731;50.720;6.912;2023-07-16T11:27:27;99916.66;;;26.42;31.55
17072;BME280;7731;50.720;6.912;2023-07-16T11:29:59;99917.41;;;26.36;31.80
17072;BME280;7731;50.720;6.912;2023-07-16T11:32:34;99915.31;;;26.31;32.54
17072;BME280;7731;50.720;6.912;2023-07-16T11:35:06;99919.59;;;25.35;33.34
17072;BME280;7731;50.720;6.912;2023-07-16T11:37:37;99919.13;;;25.08;33.72
17072;BME280;7731;50.720;6.912;2023-07-16T11:40:14;99921.22;;;26.18;31.97
17072;BME280;7731;50.720;6.912;2023-07-16T11:42:46;99933.66;;;26.40;32.13
17072;BME280;7731;50.720;6.912;2023-07-16T11:45:18;99931.88;;;26.10;31.92
17072;BME280;7731;50.720;6.912;2023-07-16T11:47:50;99927.13;;;26.35;31.89
17072;BME280;7731;50.720;6.912;2023-07-16T11:50:22;99932.41;;;26.20;32.32
17072;BME280;7731;50.720;6.912;2023-07-16T11:52:53;99924.56;;;25.67;32.26
17072;BME280;7731;50.720;6.912;2023-07-16T11:55:30;99928.06;;;25.45;33.99
17072;BME280;7731;50.720;6.912;2023-07-16T11:58:00;99931.78;;;25.51;32.37
17072;BME280;7731;50.720;6.912;2023-07-16T12:00:30;99934.66;;;25.94;33.04
17072;BME280;7731;50.720;6.912;2023-07-16T12:03:03;99918.19;;;26.51;32.40
17072;BME280;7731;50.720;6.912;2023-07-16T12:05:36;99922.34;;;26.76;32.48
17072;BME280;7731;50.720;6.912;2023-07-16T12:08:19;99919.16;;;27.02;32.34
17072;BME280;7731;50.720;6.912;2023-07-16T12:10:52;99917.19;;;26.52;32.17
17072;BME280;7731;50.720;6.912;2023-07-16T12:13:32;99921.97;;;26.64;32.57
17072;BME280;7731;50.720;6.912;2023-07-16T12:16:02;99914.63;;;26.74;32.20
17072;BME280;7731;50.720;6.912;2023-07-16T12:18:32;99916.88;;;27.20;31.29
17072;BME280;7731;50.720;6.912;2023-07-16T12:21:03;99922.84;;;26.86;31.63
17072;BME280;7731;50.720;6.912;2023-07-16T12:23:35;99926.59;;;26.10;32.18
17072;BME280;7731;50.720;6.912;2023-07-16T12:26:08;99921.06;;;26.05;32.17
17072;BME280;7731;50.720;6.912;2023-07-16T12:28:41;99917.53;;;26.13;32.51
17072;BME280;7731;50.720;6.912;2023-07-16T12:31:15;99918.91;;;26.60;32.08
17072;BME280;7731;50.720;6.912;2023-07-16T12:33:48;99929.06;;;26.63;32.62
17072;BME280;7731;50.720;6.912;2023-07-16T12:36:20;99944.81;;;25.97;32.29
17072;BME280;7731;50.720;6.912;2023-07-16T12:38:50;99945.03;;;26.10;32.09
17072;BME280;7731;50.720;6.912;2023-07-16T12:41:26;99945.41;;;26.07;32.01
17072;BME280;7731;50.720;6.912;2023-07-16T12:44:00;99938.66;;;26.19;32.51
17072;BME280;7731;50.720;6.912;2023-07-16T12:46:31;99950.38;;;25.26;34.07
17072;BME280;7731;50.720;6.912;2023-07-16T12:49:02;99946.88;;;25.72;32.67
17072;BME280;7731;50.720;6.912;2023-07-16T12:51:37;99941.47;;;26.03;32.22
17072;BME280;7731;50.720;6.912;2023-07-16T12:54:11;99941.19;;;25.68;32.37
17072;BME280;7731;50.720;6.912;2023-07-16T12:56:47;99940.75;;;25.41;33.34
17072;BME280;7731;50.720;6.912;2023-07-16T12:59:17;99937.59;;;25.46;32.42
17072;BME280;7731;50.720;6.912;2023-07-16T13:01:47;99940.88;;;25.48;32.67
17072;BME280;7731;50.720;6.912;2023-07-16T13:04:20;99930.28;;;26.31;32.36
17072;BME280;7731;50.720;6.912;2023-07-16T13:06:52;99933.16;;;26.66;30.34
17072;BME280;7731;50.720;6.912;2023-07-16T13:09:22;99927.97;;;26.21;30.52
17072;BME280;7731;50.720;6.912;2023-07-16T13:11:57;99941.09;;;25.38;32.07
17072;BME280;7731;50.720;6.912;2023-07-16T13:14:35;99943.13;;;25.28;32.28
17072;BME280;7731;50.720;6.912;2023-07-16T13:17:05;99942.91;;;25.14;32.89
17072;BME280;7731;50.720;6.912;2023-07-16T13:19:36;99934.28;;;25.67;32.08
17072;BME280;7731;50.720;6.912;2023-07-16T13:22:10;99932.31;;;25.46;31.96
17072;BME280;7731;50.720;6.912;2023-07-16T13:24:40;99941.09;;;25.38;32.37
17072;BME280;7731;50.720;6.912;2023-07-16T13:27:20;99947.28;;;25.45;33.22
17072;BME280;7731;50.720;6.912;2023-07-16T13:29:51;99944.09;;;25.35;32.66
17072;BME280;7731;50.720;6.912;2023-07-16T13:32:21;99947.66;;;25.42;33.08
17072;BME280;7731;50.720;6.912;2023-07-16T13:34:51;99951.16;;;25.88;31.82
17072;BME280;7731;50.720;6.912;2023-07-16T13:37:22;99947.53;;;25.89;31.93